Terminal Aerodrome Forecast
Issued by NWS

Home | Current Version | Previous Version | Text Only | Print | Product List | Glossary Off
Versions: 1 2 3 4 5 6 7 8 9 10 11 12 13 14 15 16

000
FTUS42 KMHX 182322
TAFPGV
TAF
KPGV 182322Z 1900/1924 VRB03KT P6SM SCT250
     FM190600 00000KT 5SM BR SCT002
     FM190900 00000KT 2SM BR SCT002
     FM191200 00000KT P6SM SCT002
     FM191300 00000KT P6SM SCT250
     FM191900 VRB04KT P6SM SCT035
      AMD LTD TO CLD VIS AND WIND=

USA.gov is the U.S. government's official web portal to all federal, state and local government web resources and services.